Time,TemperatureF,DewpointF,PressureIn,WindDirection,WindDirectionDegrees,WindSpeedMPH,WindSpeedGustMPH,Humidity,HourlyPrecipIn,Conditions,Clouds,dailyrainin,SoftwareType,DateUTC
2013-06-18 00:09:00,70.5,69.9,29.86,East,90,0.0,-999.0,98,-99.99,,,0.00,Acu-Link.com,2013-06-18 04:09:00,
2013-06-18 00:24:00,70.3,69.7,29.86,West,270,0.0,-999.0,98,-99.99,,,0.00,Acu-Link.com,2013-06-18 04:24:00,
2013-06-18 00:39:00,70.2,69.6,29.85,West,270,0.0,-999.0,98,-99.99,,,0.00,Acu-Link.com,2013-06-18 04:39:00,
2013-06-18 00:54:00,70.2,69.6,29.85,SE,135,0.0,-999.0,98,-99.99,,,0.00,Acu-Link.com,2013-06-18 04:54:00,
2013-06-18 01:09:00,70.3,69.7,29.85,SSW,202,0.0,-999.0,98,-99.99,,,0.00,Acu-Link.com,2013-06-18 05:09:00,
2013-06-18 01:24:00,70.3,69.7,29.83,ESE,112,0.0,-999.0,98,-99.99,,,0.00,Acu-Link.com,2013-06-18 05:24:00,
2013-06-18 01:40:00,70.2,69.6,29.83,ESE,112,0.0,-999.0,98,-99.99,,,0.00,Acu-Link.com,2013-06-18 05:40:00,
2013-06-18 01:55:00,70.3,69.7,29.84,ESE,112,0.0,-999.0,98,-99.99,,,0.00,Acu-Link.com,2013-06-18 05:55:00,
2013-06-18 02:10:00,70.3,69.7,29.84,South,180,0.0,-999.0,98,-99.99,,,0.00,Acu-Link.com,2013-06-18 06:10:00,
2013-06-18 02:25:00,70.3,69.7,29.83,West,270,0.0,-999.0,98,-99.99,,,0.00,Acu-Link.com,2013-06-18 06:25:00,
2013-06-18 02:40:00,70.5,69.9,29.82,ESE,112,0.0,-999.0,98,-99.99,,,0.00,Acu-Link.com,2013-06-18 06:40:00,
2013-06-18 02:55:00,70.5,69.9,29.82,SE,135,0.0,-999.0,98,-99.99,,,0.00,Acu-Link.com,2013-06-18 06:55:00,
2013-06-18 03:11:00,70.5,69.9,29.81,SW,225,0.0,-999.0,98,-99.99,,,0.00,Acu-Link.com,2013-06-18 07:11:00,
2013-06-18 03:26:00,70.5,69.9,29.80,NNW,337,0.0,-999.0,98,-99.99,,,0.00,Acu-Link.com,2013-06-18 07:26:00,
2013-06-18 03:41:00,70.5,69.9,29.80,ESE,112,0.0,-999.0,98,-99.99,,,0.00,Acu-Link.com,2013-06-18 07:41:00,
2013-06-18 03:56:00,70.5,69.9,29.80,SE,135,0.0,-999.0,98,-99.99,,,0.00,Acu-Link.com,2013-06-18 07:56:00,
2013-06-18 04:11:00,70.7,70.1,29.80,ESE,112,0.0,-999.0,98,-99.99,,,0.00,Acu-Link.com,2013-06-18 08:11:00,
2013-06-18 04:27:00,70.7,70.1,29.80,West,270,0.0,-999.0,98,-99.99,,,0.00,Acu-Link.com,2013-06-18 08:27:00,
2013-06-18 04:42:00,70.7,70.1,29.80,WSW,247,0.0,-999.0,98,-99.99,,,0.00,Acu-Link.com,2013-06-18 08:42:00,
2013-06-18 04:57:00,70.7,70.1,29.80,ESE,112,0.0,-999.0,98,-99.99,,,0.00,Acu-Link.com,2013-06-18 08:57:00,
2013-06-18 05:12:00,70.7,70.1,29.80,WSW,247,0.0,-999.0,98,-99.99,,,0.00,Acu-Link.com,2013-06-18 09:12:00,
2013-06-18 05:27:00,70.7,70.1,29.81,ESE,112,0.0,-999.0,98,-99.99,,,0.00,Acu-Link.com,2013-06-18 09:27:00,
2013-06-18 05:43:00,70.7,70.1,29.82,West,270,0.0,-999.0,98,-99.99,,,0.00,Acu-Link.com,2013-06-18 09:43:00,
2013-06-18 05:58:00,70.7,70.1,29.82,SSW,202,0.0,-999.0,98,-99.99,,,0.00,Acu-Link.com,2013-06-18 09:58:00,
2013-06-18 06:13:00,70.7,70.1,29.82,SSE,157,0.0,-999.0,98,-99.99,,,0.00,Acu-Link.com,2013-06-18 10:13:00,
2013-06-18 06:28:00,70.7,70.1,29.82,SSW,202,1.7,-999.0,98,-99.99,,,0.00,Acu-Link.com,2013-06-18 10:28:00,
2013-06-18 06:43:00,70.5,69.9,29.82,West,270,0.0,-999.0,98,-99.99,,,0.00,Acu-Link.com,2013-06-18 10:43:00,
2013-06-18 06:58:00,70.5,69.9,29.81,ENE,67,0.0,-999.0,98,-99.99,,,0.00,Acu-Link.com,2013-06-18 10:58:00,
2013-06-18 07:14:00,70.9,70.3,29.81,West,270,0.0,-999.0,98,-99.99,,,0.00,Acu-Link.com,2013-06-18 11:14:00,
2013-06-18 07:29:00,72.1,71.5,29.80,East,90,1.7,-999.0,98,-99.99,,,0.00,Acu-Link.com,2013-06-18 11:29:00,
2013-06-18 07:45:00,73.2,72.6,29.80,SW,225,0.0,-999.0,98,-99.99,,,0.00,Acu-Link.com,2013-06-18 11:45:00,
2013-06-18 08:00:00,73.6,73.0,29.80,NNW,337,0.0,-999.0,98,-99.99,,,0.00,Acu-Link.com,2013-06-18 12:00:00,
2013-06-18 08:16:00,73.4,72.8,29.81,East,90,0.0,-999.0,98,-99.99,,,0.00,Acu-Link.com,2013-06-18 12:16:00,
2013-06-18 08:31:00,73.6,73.0,29.82,WNW,292,0.0,-999.0,98,-99.99,,,0.00,Acu-Link.com,2013-06-18 12:31:00,
2013-06-18 08:46:00,73.8,73.2,29.81,East,90,0.0,-999.0,98,-99.99,,,0.00,Acu-Link.com,2013-06-18 12:46:00,
2013-06-18 09:01:00,74.1,73.5,29.82,ESE,112,3.2,-999.0,98,-99.99,,,0.00,Acu-Link.com,2013-06-18 13:01:00,
2013-06-18 09:16:00,74.3,73.7,29.81,NNE,22,2.2,-999.0,98,-99.99,,,0.00,Acu-Link.com,2013-06-18 13:16:00,
2013-06-18 09:31:00,73.2,72.6,29.82,ESE,112,1.1,-999.0,98,-99.99,,,0.00,Acu-Link.com,2013-06-18 13:31:00,
2013-06-18 09:46:00,72.5,71.9,29.83,NE,45,0.0,-999.0,98,-99.99,,,0.01,Acu-Link.com,2013-06-18 13:46:00,
2013-06-18 10:02:00,72.1,71.5,29.84,NNE,22,0.0,-999.0,98,-99.99,,,0.06,Acu-Link.com,2013-06-18 14:02:00,
2013-06-18 10:17:00,71.8,71.2,29.81,SSW,202,0.0,-999.0,98,-99.99,,,0.16,Acu-Link.com,2013-06-18 14:17:00,
2013-06-18 10:32:00,73.8,73.2,29.79,East,90,2.2,-999.0,98,-99.99,,,0.20,Acu-Link.com,2013-06-18 14:32:00,
2013-06-18 10:47:00,75.0,74.4,29.79,ESE,112,1.7,-999.0,98,-99.99,,,0.21,Acu-Link.com,2013-06-18 14:47:00,
2013-06-18 11:02:00,76.1,75.5,29.79,ENE,67,3.2,-999.0,98,-99.99,,,0.21,Acu-Link.com,2013-06-18 15:02:00,
2013-06-18 11:17:00,77.7,77.1,29.79,NNE,22,0.0,-999.0,98,-99.99,,,0.21,Acu-Link.com,2013-06-18 15:17:00,
2013-06-18 11:32:00,79.2,78.6,29.79,ESE,112,1.7,-999.0,98,-99.99,,,0.21,Acu-Link.com,2013-06-18 15:32:00,
2013-06-18 11:48:00,78.8,78.2,29.79,SW,225,2.7,-999.0,98,-99.99,,,0.21,Acu-Link.com,2013-06-18 15:48:00,
2013-06-18 12:03:00,79.5,78.9,29.77,ENE,67,3.7,-999.0,98,-99.99,,,0.21,Acu-Link.com,2013-06-18 16:03:00,
2013-06-18 12:18:00,83.7,83.1,29.77,ESE,112,5.8,-999.0,98,-99.99,,,0.21,Acu-Link.com,2013-06-18 16:18:00,
2013-06-18 12:34:00,86.0,84.1,29.76,WSW,247,1.7,-999.0,94,-99.99,,,0.21,Acu-Link.com,2013-06-18 16:34:00,
2013-06-18 12:49:00,87.6,82.1,29.76,SE,135,2.7,-999.0,84,-99.99,,,0.21,Acu-Link.com,2013-06-18 16:49:00,
2013-06-18 13:04:00,88.5,79.1,29.74,ESE,112,6.3,-999.0,74,-99.99,,,0.21,Acu-Link.com,2013-06-18 17:04:00,
2013-06-18 13:20:00,88.3,78.1,29.75,SE,135,4.2,-999.0,72,-99.99,,,0.21,Acu-Link.com,2013-06-18 17:20:00,
2013-06-18 13:35:00,90.9,79.3,29.74,East,90,2.7,-999.0,69,-99.99,,,0.21,Acu-Link.com,2013-06-18 17:35:00,
2013-06-18 13:50:00,92.1,80.4,29.73,NNW,337,1.1,-999.0,69,-99.99,,,0.21,Acu-Link.com,2013-06-18 17:50:00,
2013-06-18 14:05:00,91.6,78.1,29.73,East,90,4.7,-999.0,65,-99.99,,,0.21,Acu-Link.com,2013-06-18 18:05:00,
2013-06-18 14:20:00,91.2,79.6,29.72,East,90,3.7,-999.0,69,-99.99,,,0.21,Acu-Link.com,2013-06-18 18:20:00,
2013-06-18 14:35:00,88.2,77.6,29.71,NW,315,0.0,-999.0,71,-99.99,,,0.21,Acu-Link.com,2013-06-18 18:35:00,
2013-06-18 14:50:00,86.5,78.0,29.71,East,90,2.2,-999.0,76,-99.99,,,0.21,Acu-Link.com,2013-06-18 18:50:00,
2013-06-18 15:05:00,91.8,81.0,29.71,NNW,337,0.0,-999.0,71,-99.99,,,0.21,Acu-Link.com,2013-06-18 19:05:00,
2013-06-18 15:20:00,88.0,77.4,29.70,West,270,0.0,-999.0,71,-99.99,,,0.21,Acu-Link.com,2013-06-18 19:20:00,
2013-06-18 15:36:00,87.6,78.7,29.70,NNW,337,0.0,-999.0,75,-99.99,,,0.21,Acu-Link.com,2013-06-18 19:36:00,
2013-06-18 15:52:00,84.9,78.4,29.70,WSW,247,0.0,-999.0,81,-99.99,,,0.25,Acu-Link.com,2013-06-18 19:52:00,
2013-06-18 16:07:00,83.7,79.4,29.69,WSW,247,0.0,-999.0,87,-99.99,,,0.26,Acu-Link.com,2013-06-18 20:07:00,
2013-06-18 16:23:00,81.9,77.6,29.70,West,270,2.2,-999.0,87,-99.99,,,0.26,Acu-Link.com,2013-06-18 20:23:00,
2013-06-18 16:38:00,80.6,76.7,29.71,South,180,0.0,-999.0,88,-99.99,,,0.29,Acu-Link.com,2013-06-18 20:38:00,
2013-06-18 16:53:00,81.9,77.6,29.70,ENE,67,0.0,-999.0,87,-99.99,,,0.29,Acu-Link.com,2013-06-18 20:53:00,
2013-06-18 17:08:00,82.8,77.5,29.69,NW,315,1.1,-999.0,84,-99.99,,,0.29,Acu-Link.com,2013-06-18 21:08:00,
2013-06-18 17:23:00,82.4,77.8,29.69,WNW,292,2.2,-999.0,86,-99.99,,,0.29,Acu-Link.com,2013-06-18 21:23:00,
2013-06-18 17:38:00,85.8,78.9,29.68,WNW,292,0.0,-999.0,80,-99.99,,,0.29,Acu-Link.com,2013-06-18 21:38:00,
2013-06-18 17:53:00,85.6,78.3,29.69,NE,45,0.0,-999.0,79,-99.99,,,0.29,Acu-Link.com,2013-06-18 21:53:00,
2013-06-18 18:09:00,83.5,77.0,29.69,ENE,67,0.0,-999.0,81,-99.99,,,0.29,Acu-Link.com,2013-06-18 22:09:00,
2013-06-18 18:24:00,81.7,76.7,29.69,WNW,292,0.0,-999.0,85,-99.99,,,0.29,Acu-Link.com,2013-06-18 22:24:00,
2013-06-18 18:39:00,80.6,76.4,29.69,East,90,0.0,-999.0,87,-99.99,,,0.29,Acu-Link.com,2013-06-18 22:39:00,
2013-06-18 18:55:00,80.6,76.7,29.69,South,180,1.7,-999.0,88,-99.99,,,0.29,Acu-Link.com,2013-06-18 22:55:00,
2013-06-18 19:10:00,80.1,76.6,29.69,NW,315,0.0,-999.0,89,-99.99,,,0.29,Acu-Link.com,2013-06-18 23:10:00,
2013-06-18 19:25:00,79.2,75.7,29.70,SW,225,1.1,-999.0,89,-99.99,,,0.29,Acu-Link.com,2013-06-18 23:25:00,
2013-06-18 19:40:00,79.0,75.8,29.71,ESE,112,0.0,-999.0,90,-99.99,,,0.29,Acu-Link.com,2013-06-18 23:40:00,
2013-06-18 19:55:00,77.9,74.7,29.72,WSW,247,1.7,-999.0,90,-99.99,,,0.29,Acu-Link.com,2013-06-18 23:55:00,
2013-06-18 20:11:00,77.2,74.4,29.72,NW,315,1.7,-999.0,91,-99.99,,,0.29,Acu-Link.com,2013-06-19 00:11:00,
2013-06-18 20:26:00,76.3,73.8,29.71,NE,45,0.0,-999.0,92,-99.99,,,0.29,Acu-Link.com,2013-06-19 00:26:00,
2013-06-18 20:41:00,75.6,73.7,29.72,WNW,292,0.0,-999.0,94,-99.99,,,0.29,Acu-Link.com,2013-06-19 00:41:00,
2013-06-18 20:56:00,74.8,73.6,29.72,WNW,292,0.0,-999.0,96,-99.99,,,0.29,Acu-Link.com,2013-06-19 00:56:00,
2013-06-18 21:12:00,74.1,73.5,29.73,ENE,67,0.0,-999.0,98,-99.99,,,0.29,Acu-Link.com,2013-06-19 01:12:00,
2013-06-18 21:27:00,73.4,72.8,29.74,NE,45,0.0,-999.0,98,-99.99,,,0.29,Acu-Link.com,2013-06-19 01:27:00,
2013-06-18 21:42:00,72.9,72.3,29.75,WNW,292,0.0,-999.0,98,-99.99,,,0.29,Acu-Link.com,2013-06-19 01:42:00,
2013-06-18 21:57:00,72.3,71.7,29.74,East,90,0.0,-999.0,98,-99.99,,,0.29,Acu-Link.com,2013-06-19 01:57:00,
2013-06-18 22:12:00,72.5,71.9,29.76,ESE,112,0.0,-999.0,98,-99.99,,,0.29,Acu-Link.com,2013-06-19 02:12:00,
2013-06-18 22:27:00,72.7,72.1,29.76,SSW,202,0.0,-999.0,98,-99.99,,,0.29,Acu-Link.com,2013-06-19 02:27:00,
2013-06-18 22:43:00,72.9,72.3,29.76,ESE,112,0.0,-999.0,98,-99.99,,,0.29,Acu-Link.com,2013-06-19 02:43:00,
2013-06-18 22:58:00,72.9,72.3,29.77,East,90,0.0,-999.0,98,-99.99,,,0.29,Acu-Link.com,2013-06-19 02:58:00,
2013-06-18 23:13:00,73.0,72.4,29.78,East,90,0.0,-999.0,98,-99.99,,,0.29,Acu-Link.com,2013-06-19 03:13:00,
2013-06-18 23:28:00,73.0,72.4,29.79,West,270,0.0,-999.0,98,-99.99,,,0.29,Acu-Link.com,2013-06-19 03:28:00,
2013-06-18 23:43:00,73.0,72.4,29.79,North,0,3.2,-999.0,98,-99.99,,,0.29,Acu-Link.com,2013-06-19 03:43:00,
2013-06-18 23:58:00,72.7,70.6,29.80,ENE,67,0.0,-999.0,93,-99.99,,,0.29,Acu-Link.com,2013-06-19 03:58:00,